sensor_id;sensor_type;location;lat;lon;timestamp;P1;durP1;ratioP1;P2;durP2;ratioP2
12689;SDS011;6409;56.294;14.480;2022-08-23T00:01:37;4.03;;;1.20;;
12689;SDS011;6409;56.294;14.480;2022-08-23T00:04:10;1.37;;;1.27;;
12689;SDS011;6409;56.294;14.480;2022-08-23T00:06:38;1.70;;;1.60;;
12689;SDS011;6409;56.294;14.480;2022-08-23T00:09:05;1.33;;;1.20;;
12689;SDS011;6409;56.294;14.480;2022-08-23T00:11:33;1.00;;;1.00;;
12689;SDS011;6409;56.294;14.480;2022-08-23T00:14:03;1.77;;;1.30;;
12689;SDS011;6409;56.294;14.480;2022-08-23T00:16:31;2.80;;;1.17;;
12689;SDS011;6409;56.294;14.480;2022-08-23T00:18:59;5.13;;;1.30;;
12689;SDS011;6409;56.294;14.480;2022-08-23T00:21:28;1.50;;;1.40;;
12689;SDS011;6409;56.294;14.480;2022-08-23T00:23:55;1.30;;;1.10;;
12689;SDS011;6409;56.294;14.480;2022-08-23T00:26:22;1.10;;;1.10;;
12689;SDS011;6409;56.294;14.480;2022-08-23T00:28:49;1.50;;;1.30;;
12689;SDS011;6409;56.294;14.480;2022-08-23T00:31:17;5.90;;;1.53;;
12689;SDS011;6409;56.294;14.480;2022-08-23T00:33:44;1.30;;;1.20;;
12689;SDS011;6409;56.294;14.480;2022-08-23T00:36:11;1.47;;;1.30;;
12689;SDS011;6409;56.294;14.480;2022-08-23T00:38:39;4.33;;;1.20;;
12689;SDS011;6409;56.294;14.480;2022-08-23T00:41:06;1.33;;;1.23;;
12689;SDS011;6409;56.294;14.480;2022-08-23T00:43:34;1.30;;;1.20;;
12689;SDS011;6409;56.294;14.480;2022-08-23T00:46:25;1.53;;;1.43;;
12689;SDS011;6409;56.294;14.480;2022-08-23T00:49:16;2.70;;;1.40;;
12689;SDS011;6409;56.294;14.480;2022-08-23T00:51:45;1.50;;;1.40;;
12689;SDS011;6409;56.294;14.480;2022-08-23T00:54:16;1.33;;;1.20;;
12689;SDS011;6409;56.294;14.480;2022-08-23T00:56:43;3.57;;;1.30;;
12689;SDS011;6409;56.294;14.480;2022-08-23T00:59:10;1.30;;;1.20;;
12689;SDS011;6409;56.294;14.480;2022-08-23T01:01:37;2.17;;;1.30;;
12689;SDS011;6409;56.294;14.480;2022-08-23T01:04:05;1.40;;;1.30;;
12689;SDS011;6409;56.294;14.480;2022-08-23T01:06:33;6.03;;;1.30;;
12689;SDS011;6409;56.294;14.480;2022-08-23T01:09:05;4.23;;;1.13;;
12689;SDS011;6409;56.294;14.480;2022-08-23T01:11:36;1.53;;;1.20;;
12689;SDS011;6409;56.294;14.480;2022-08-23T01:14:07;1.43;;;1.27;;
12689;SDS011;6409;56.294;14.480;2022-08-23T01:16:38;1.80;;;1.00;;
12689;SDS011;6409;56.294;14.480;2022-08-23T01:19:14;1.97;;;1.30;;
12689;SDS011;6409;56.294;14.480;2022-08-23T01:21:46;2.63;;;1.37;;
12689;SDS011;6409;56.294;14.480;2022-08-23T01:24:16;2.50;;;1.33;;
12689;SDS011;6409;56.294;14.480;2022-08-23T01:26:43;1.50;;;1.10;;
12689;SDS011;6409;56.294;14.480;2022-08-23T01:29:12;1.23;;;1.00;;
12689;SDS011;6409;56.294;14.480;2022-08-23T01:31:40;1.50;;;1.27;;
12689;SDS011;6409;56.294;14.480;2022-08-23T01:34:09;1.10;;;1.00;;
12689;SDS011;6409;56.294;14.480;2022-08-23T01:36:36;1.23;;;1.13;;
12689;SDS011;6409;56.294;14.480;2022-08-23T01:39:04;1.70;;;1.50;;
12689;SDS011;6409;56.294;14.480;2022-08-23T01:41:41;1.33;;;1.10;;
12689;SDS011;6409;56.294;14.480;2022-08-23T01:44:08;1.30;;;1.20;;
12689;SDS011;6409;56.294;14.480;2022-08-23T01:46:35;2.10;;;1.40;;
12689;SDS011;6409;56.294;14.480;2022-08-23T01:49:02;1.97;;;1.20;;
12689;SDS011;6409;56.294;14.480;2022-08-23T01:51:29;3.33;;;1.20;;
12689;SDS011;6409;56.294;14.480;2022-08-23T01:53:57;2.37;;;1.50;;
12689;SDS011;6409;56.294;14.480;2022-08-23T01:56:24;1.93;;;1.20;;
12689;SDS011;6409;56.294;14.480;2022-08-23T01:58:52;1.73;;;1.13;;
12689;SDS011;6409;56.294;14.480;2022-08-23T02:01:19;2.73;;;1.40;;
12689;SDS011;6409;56.294;14.480;2022-08-23T02:03:46;1.13;;;1.10;;
12689;SDS011;6409;56.294;14.480;2022-08-23T02:06:12;1.30;;;1.00;;
12689;SDS011;6409;56.294;14.480;2022-08-23T02:08:39;1.40;;;1.20;;
12689;SDS011;6409;56.294;14.480;2022-08-23T02:11:24;1.13;;;1.03;;
12689;SDS011;6409;56.294;14.480;2022-08-23T02:13:54;4.53;;;1.47;;
12689;SDS011;6409;56.294;14.480;2022-08-23T02:16:22;0.90;;;0.90;;
12689;SDS011;6409;56.294;14.480;2022-08-23T02:18:50;1.37;;;1.20;;
12689;SDS011;6409;56.294;14.480;2022-08-23T02:21:17;1.20;;;1.10;;
12689;SDS011;6409;56.294;14.480;2022-08-23T02:23:44;2.73;;;1.50;;
12689;SDS011;6409;56.294;14.480;2022-08-23T02:26:11;6.20;;;1.50;;
12689;SDS011;6409;56.294;14.480;2022-08-23T02:28:38;1.30;;;1.20;;
12689;SDS011;6409;56.294;14.480;2022-08-23T02:31:07;1.73;;;1.60;;
12689;SDS011;6409;56.294;14.480;2022-08-23T02:33:34;1.67;;;1.37;;
12689;SDS011;6409;56.294;14.480;2022-08-23T02:36:01;1.00;;;1.00;;
12689;SDS011;6409;56.294;14.480;2022-08-23T02:38:28;1.20;;;1.10;;
12689;SDS011;6409;56.294;14.480;2022-08-23T02:40:56;1.50;;;1.40;;
12689;SDS011;6409;56.294;14.480;2022-08-23T02:43:23;8.63;;;1.40;;
12689;SDS011;6409;56.294;14.480;2022-08-23T02:45:50;1.10;;;1.10;;
12689;SDS011;6409;56.294;14.480;2022-08-23T02:48:19;3.20;;;1.40;;
12689;SDS011;6409;56.294;14.480;2022-08-23T02:50:47;1.30;;;1.20;;
12689;SDS011;6409;56.294;14.480;2022-08-23T02:53:15;1.43;;;1.00;;
12689;SDS011;6409;56.294;14.480;2022-08-23T02:55:44;1.43;;;1.13;;
12689;SDS011;6409;56.294;14.480;2022-08-23T02:58:11;1.73;;;1.40;;
12689;SDS011;6409;56.294;14.480;2022-08-23T03:00:38;1.40;;;1.30;;
12689;SDS011;6409;56.294;14.480;2022-08-23T03:03:05;1.03;;;1.03;;
12689;SDS011;6409;56.294;14.480;2022-08-23T03:05:34;1.67;;;1.13;;
12689;SDS011;6409;56.294;14.480;2022-08-23T03:08:01;1.70;;;1.40;;
12689;SDS011;6409;56.294;14.480;2022-08-23T03:10:28;1.53;;;1.10;;
12689;SDS011;6409;56.294;14.480;2022-08-23T03:12:55;1.63;;;1.20;;
12689;SDS011;6409;56.294;14.480;2022-08-23T03:15:22;1.93;;;1.00;;
12689;SDS011;6409;56.294;14.480;2022-08-23T03:17:49;1.43;;;1.33;;
12689;SDS011;6409;56.294;14.480;2022-08-23T03:20:16;4.30;;;2.00;;
12689;SDS011;6409;56.294;14.480;2022-08-23T03:22:44;2.27;;;1.20;;
12689;SDS011;6409;56.294;14.480;2022-08-23T03:25:11;1.17;;;1.07;;
12689;SDS011;6409;56.294;14.480;2022-08-23T03:27:38;2.40;;;1.37;;
12689;SDS011;6409;56.294;14.480;2022-08-23T03:30:05;1.27;;;1.17;;
12689;SDS011;6409;56.294;14.480;2022-08-23T03:32:33;1.10;;;1.00;;
12689;SDS011;6409;56.294;14.480;2022-08-23T03:35:00;3.53;;;1.10;;
12689;SDS011;6409;56.294;14.480;2022-08-23T03:37:27;3.37;;;1.17;;
12689;SDS011;6409;56.294;14.480;2022-08-23T03:39:55;2.03;;;1.60;;
12689;SDS011;6409;56.294;14.480;2022-08-23T03:42:22;1.63;;;1.53;;
12689;SDS011;6409;56.294;14.480;2022-08-23T03:44:49;1.03;;;1.03;;
12689;SDS011;6409;56.294;14.480;2022-08-23T03:47:16;1.40;;;1.30;;
12689;SDS011;6409;56.294;14.480;2022-08-23T03:49:43;1.27;;;1.17;;
12689;SDS011;6409;56.294;14.480;2022-08-23T03:52:10;1.87;;;1.53;;
12689;SDS011;6409;56.294;14.480;2022-08-23T03:54:37;1.30;;;1.20;;
12689;SDS011;6409;56.294;14.480;2022-08-23T03:57:06;2.03;;;1.50;;
12689;SDS011;6409;56.294;14.480;2022-08-23T03:59:35;1.40;;;1.17;;
12689;SDS011;6409;56.294;14.480;2022-08-23T04:02:03;1.60;;;1.30;;
12689;SDS011;6409;56.294;14.480;2022-08-23T04:04:30;1.20;;;1.10;;
12689;SDS011;6409;56.294;14.480;2022-08-23T04:06:57;1.40;;;1.30;;
12689;SDS011;6409;56.294;14.480;2022-08-23T04:09:24;2.50;;;1.20;;
12689;SDS011;6409;56.294;14.480;2022-08-23T04:11:51;1.53;;;1.30;;
12689;SDS011;6409;56.294;14.480;2022-08-23T04:14:19;1.47;;;1.20;;
12689;SDS011;6409;56.294;14.480;2022-08-23T04:16:46;1.50;;;1.40;;
12689;SDS011;6409;56.294;14.480;2022-08-23T04:19:13;1.67;;;1.20;;
12689;SDS011;6409;56.294;14.480;2022-08-23T04:21:41;1.30;;;1.20;;
12689;SDS011;6409;56.294;14.480;2022-08-23T04:24:09;1.40;;;1.30;;
12689;SDS011;6409;56.294;14.480;2022-08-23T04:26:36;1.50;;;1.40;;
12689;SDS011;6409;56.294;14.480;2022-08-23T04:29:04;1.53;;;1.07;;
12689;SDS011;6409;56.294;14.480;2022-08-23T04:31:33;1.40;;;1.30;;
12689;SDS011;6409;56.294;14.480;2022-08-23T04:34:00;7.90;;;1.57;;
12689;SDS011;6409;56.294;14.480;2022-08-23T04:36:27;1.20;;;1.10;;
12689;SDS011;6409;56.294;14.480;2022-08-23T04:38:57;5.37;;;1.30;;
12689;SDS011;6409;56.294;14.480;2022-08-23T04:41:24;1.87;;;1.07;;
12689;SDS011;6409;56.294;14.480;2022-08-23T04:44:09;1.27;;;1.17;;
12689;SDS011;6409;56.294;14.480;2022-08-23T04:46:37;1.63;;;1.33;;
12689;SDS011;6409;56.294;14.480;2022-08-23T04:49:04;1.30;;;1.20;;
12689;SDS011;6409;56.294;14.480;2022-08-23T04:51:31;3.37;;;1.00;;
12689;SDS011;6409;56.294;14.480;2022-08-23T04:53:58;3.43;;;1.30;;
12689;SDS011;6409;56.294;14.480;2022-08-23T04:56:25;2.47;;;1.43;;
12689;SDS011;6409;56.294;14.480;2022-08-23T04:58:53;1.60;;;1.50;;
12689;SDS011;6409;56.294;14.480;2022-08-23T05:01:20;2.93;;;1.30;;
12689;SDS011;6409;56.294;14.480;2022-08-23T05:03:50;1.50;;;1.30;;
12689;SDS011;6409;56.294;14.480;2022-08-23T05:06:17;2.10;;;1.20;;
12689;SDS011;6409;56.294;14.480;2022-08-23T05:08:44;1.20;;;1.10;;
12689;SDS011;6409;56.294;14.480;2022-08-23T05:11:11;1.40;;;1.30;;
12689;SDS011;6409;56.294;14.480;2022-08-23T05:13:38;1.50;;;1.40;;
12689;SDS011;6409;56.294;14.480;2022-08-23T05:16:06;1.10;;;1.00;;
12689;SDS011;6409;56.294;14.480;2022-08-23T05:18:33;1.33;;;1.10;;
12689;SDS011;6409;56.294;14.480;2022-08-23T05:21:03;1.63;;;1.27;;
12689;SDS011;6409;56.294;14.480;2022-08-23T05:23:30;3.17;;;1.50;;
12689;SDS011;6409;56.294;14.480;2022-08-23T05:25:58;1.50;;;1.40;;
12689;SDS011;6409;56.294;14.480;2022-08-23T05:28:26;1.47;;;1.33;;
12689;SDS011;6409;56.294;14.480;2022-08-23T05:30:56;2.63;;;1.33;;
12689;SDS011;6409;56.294;14.480;2022-08-23T05:33:25;1.30;;;1.20;;
12689;SDS011;6409;56.294;14.480;2022-08-23T05:35:53;1.13;;;1.13;;
12689;SDS011;6409;56.294;14.480;2022-08-23T05:38:22;1.30;;;1.20;;
12689;SDS011;6409;56.294;14.480;2022-08-23T05:40:50;2.00;;;1.20;;
12689;SDS011;6409;56.294;14.480;2022-08-23T05:43:18;1.87;;;1.43;;
12689;SDS011;6409;56.294;14.480;2022-08-23T05:45:45;5.07;;;1.10;;
12689;SDS011;6409;56.294;14.480;2022-08-23T05:48:13;1.20;;;1.10;;
12689;SDS011;6409;56.294;14.480;2022-08-23T05:50:40;1.43;;;1.33;;
12689;SDS011;6409;56.294;14.480;2022-08-23T05:53:07;1.17;;;1.10;;
12689;SDS011;6409;56.294;14.480;2022-08-23T05:55:36;1.20;;;1.10;;
12689;SDS011;6409;56.294;14.480;2022-08-23T05:58:03;2.20;;;1.33;;
12689;SDS011;6409;56.294;14.480;2022-08-23T06:00:30;2.60;;;1.60;;
12689;SDS011;6409;56.294;14.480;2022-08-23T06:02:57;1.70;;;1.57;;
12689;SDS011;6409;56.294;14.480;2022-08-23T06:05:23;1.27;;;1.17;;
12689;SDS011;6409;56.294;14.480;2022-08-23T06:07:51;1.87;;;1.70;;
12689;SDS011;6409;56.294;14.480;2022-08-23T06:10:18;1.60;;;1.50;;
12689;SDS011;6409;56.294;14.480;2022-08-23T06:12:46;2.60;;;1.40;;
12689;SDS011;6409;56.294;14.480;2022-08-23T06:15:14;1.20;;;1.10;;
12689;SDS011;6409;56.294;14.480;2022-08-23T06:17:40;2.77;;;1.50;;
12689;SDS011;6409;56.294;14.480;2022-08-23T06:20:08;1.60;;;1.50;;
12689;SDS011;6409;56.294;14.480;2022-08-23T06:22:38;1.43;;;1.33;;
12689;SDS011;6409;56.294;14.480;2022-08-23T06:25:05;1.10;;;1.10;;
12689;SDS011;6409;56.294;14.480;2022-08-23T06:27:33;2.00;;;1.50;;
12689;SDS011;6409;56.294;14.480;2022-08-23T06:30:01;1.90;;;1.53;;
12689;SDS011;6409;56.294;14.480;2022-08-23T06:32:28;1.37;;;1.20;;
12689;SDS011;6409;56.294;14.480;2022-08-23T06:34:55;1.73;;;1.30;;
12689;SDS011;6409;56.294;14.480;2022-08-23T06:37:22;1.87;;;1.20;;
12689;SDS011;6409;56.294;14.480;2022-08-23T06:39:49;2.33;;;1.20;;
12689;SDS011;6409;56.294;14.480;2022-08-23T06:42:17;1.77;;;1.30;;
12689;SDS011;6409;56.294;14.480;2022-08-23T06:44:44;1.70;;;1.20;;
12689;SDS011;6409;56.294;14.480;2022-08-23T06:47:12;3.17;;;1.50;;
12689;SDS011;6409;56.294;14.480;2022-08-23T06:49:39;3.80;;;1.23;;
12689;SDS011;6409;56.294;14.480;2022-08-23T06:52:06;1.73;;;1.23;;
12689;SDS011;6409;56.294;14.480;2022-08-23T06:54:33;1.73;;;1.60;;
12689;SDS011;6409;56.294;14.480;2022-08-23T06:57:01;3.10;;;1.40;;
12689;SDS011;6409;56.294;14.480;2022-08-23T06:59:28;1.50;;;1.40;;
12689;SDS011;6409;56.294;14.480;2022-08-23T07:01:56;4.50;;;1.20;;
12689;SDS011;6409;56.294;14.480;2022-08-23T07:04:27;2.20;;;1.37;;
12689;SDS011;6409;56.294;14.480;2022-08-23T07:06:55;1.60;;;1.43;;
12689;SDS011;6409;56.294;14.480;2022-08-23T07:09:23;2.33;;;1.60;;
12689;SDS011;6409;56.294;14.480;2022-08-23T07:11:51;2.80;;;1.50;;
12689;SDS011;6409;56.294;14.480;2022-08-23T07:14:18;2.73;;;1.30;;
12689;SDS011;6409;56.294;14.480;2022-08-23T07:16:47;1.40;;;1.30;;
12689;SDS011;6409;56.294;14.480;2022-08-23T07:19:16;1.63;;;1.47;;
12689;SDS011;6409;56.294;14.480;2022-08-23T07:21:45;4.57;;;1.47;;
12689;SDS011;6409;56.294;14.480;2022-08-23T07:24:13;2.10;;;1.50;;
12689;SDS011;6409;56.294;14.480;2022-08-23T07:26:40;1.27;;;1.17;;
12689;SDS011;6409;56.294;14.480;2022-08-23T07:29:09;1.30;;;1.20;;
12689;SDS011;6409;56.294;14.480;2022-08-23T07:31:38;2.60;;;1.40;;
12689;SDS011;6409;56.294;14.480;2022-08-23T07:34:06;1.40;;;1.30;;
12689;SDS011;6409;56.294;14.480;2022-08-23T07:36:33;2.97;;;1.60;;
12689;SDS011;6409;56.294;14.480;2022-08-23T07:39:01;1.23;;;1.13;;
12689;SDS011;6409;56.294;14.480;2022-08-23T07:41:30;1.20;;;1.20;;
12689;SDS011;6409;56.294;14.480;2022-08-23T07:43:58;1.83;;;1.50;;
12689;SDS011;6409;56.294;14.480;2022-08-23T07:46:26;1.60;;;1.50;;
12689;SDS011;6409;56.294;14.480;2022-08-23T07:48:54;1.40;;;1.30;;
12689;SDS011;6409;56.294;14.480;2022-08-23T07:51:22;2.83;;;1.40;;
12689;SDS011;6409;56.294;14.480;2022-08-23T07:53:49;2.07;;;1.30;;
12689;SDS011;6409;56.294;14.480;2022-08-23T07:56:19;1.53;;;1.43;;
12689;SDS011;6409;56.294;14.480;2022-08-23T07:58:46;1.50;;;1.40;;
12689;SDS011;6409;56.294;14.480;2022-08-23T08:01:16;3.70;;;1.30;;
12689;SDS011;6409;56.294;14.480;2022-08-23T08:03:44;2.07;;;1.50;;
12689;SDS011;6409;56.294;14.480;2022-08-23T08:06:13;3.63;;;1.50;;
12689;SDS011;6409;56.294;14.480;2022-08-23T08:08:42;2.50;;;1.60;;
12689;SDS011;6409;56.294;14.480;2022-08-23T08:11:10;1.73;;;1.50;;
12689;SDS011;6409;56.294;14.480;2022-08-23T08:13:40;1.40;;;1.30;;
12689;SDS011;6409;56.294;14.480;2022-08-23T08:16:08;1.50;;;1.40;;
12689;SDS011;6409;56.294;14.480;2022-08-23T08:18:36;1.70;;;1.20;;
12689;SDS011;6409;56.294;14.480;2022-08-23T08:21:03;4.90;;;1.83;;
12689;SDS011;6409;56.294;14.480;2022-08-23T08:23:30;5.13;;;1.40;;
12689;SDS011;6409;56.294;14.480;2022-08-23T08:25:58;1.77;;;1.40;;
12689;SDS011;6409;56.294;14.480;2022-08-23T08:28:26;1.60;;;1.50;;
12689;SDS011;6409;56.294;14.480;2022-08-23T08:30:54;1.83;;;1.27;;
12689;SDS011;6409;56.294;14.480;2022-08-23T08:33:21;1.37;;;1.37;;
12689;SDS011;6409;56.294;14.480;2022-08-23T08:35:48;1.30;;;1.20;;
12689;SDS011;6409;56.294;14.480;2022-08-23T08:38:15;2.73;;;1.40;;
12689;SDS011;6409;56.294;14.480;2022-08-23T08:40:42;2.67;;;1.40;;
12689;SDS011;6409;56.294;14.480;2022-08-23T08:43:13;1.40;;;1.30;;
12689;SDS011;6409;56.294;14.480;2022-08-23T08:45:51;1.33;;;1.20;;
12689;SDS011;6409;56.294;14.480;2022-08-23T08:48:26;2.27;;;1.47;;
12689;SDS011;6409;56.294;14.480;2022-08-23T08:50:57;4.10;;;1.43;;
12689;SDS011;6409;56.294;14.480;2022-08-23T08:53:27;1.50;;;1.40;;
12689;SDS011;6409;56.294;14.480;2022-08-23T08:55:57;2.23;;;1.40;;
12689;SDS011;6409;56.294;14.480;2022-08-23T08:58:27;2.60;;;1.63;;
12689;SDS011;6409;56.294;14.480;2022-08-23T09:01:00;1.30;;;1.30;;
12689;SDS011;6409;56.294;14.480;2022-08-23T09:03:28;1.20;;;1.20;;
12689;SDS011;6409;56.294;14.480;2022-08-23T09:06:00;1.30;;;1.20;;
12689;SDS011;6409;56.294;14.480;2022-08-23T09:08:34;1.50;;;1.40;;
12689;SDS011;6409;56.294;14.480;2022-08-23T09:11:09;2.90;;;1.40;;
12689;SDS011;6409;56.294;14.480;2022-08-23T09:13:57;1.40;;;1.30;;
12689;SDS011;6409;56.294;14.480;2022-08-23T09:16:39;2.90;;;1.47;;
12689;SDS011;6409;56.294;14.480;2022-08-23T09:19:12;1.40;;;1.30;;
12689;SDS011;6409;56.294;14.480;2022-08-23T09:21:41;1.97;;;1.63;;
12689;SDS011;6409;56.294;14.480;2022-08-23T09:24:10;1.80;;;1.70;;
12689;SDS011;6409;56.294;14.480;2022-08-23T09:26:37;2.83;;;1.57;;
12689;SDS011;6409;56.294;14.480;2022-08-23T09:29:06;1.50;;;1.40;;
12689;SDS011;6409;56.294;14.480;2022-08-23T09:31:44;2.63;;;1.40;;
12689;SDS011;6409;56.294;14.480;2022-08-23T09:34:15;2.60;;;1.53;;
12689;SDS011;6409;56.294;14.480;2022-08-23T09:36:45;1.40;;;1.30;;
12689;SDS011;6409;56.294;14.480;2022-08-23T09:39:23;1.63;;;1.53;;
12689;SDS011;6409;56.294;14.480;2022-08-23T09:41:54;1.40;;;1.30;;
12689;SDS011;6409;56.294;14.480;2022-08-23T09:44:32;3.97;;;1.60;;
12689;SDS011;6409;56.294;14.480;2022-08-23T09:47:07;2.63;;;1.60;;
12689;SDS011;6409;56.294;14.480;2022-08-23T09:49:36;1.43;;;1.33;;
12689;SDS011;6409;56.294;14.480;2022-08-23T09:52:10;4.20;;;1.60;;
12689;SDS011;6409;56.294;14.480;2022-08-23T09:54:40;1.63;;;1.53;;
12689;SDS011;6409;56.294;14.480;2022-08-23T09:57:08;1.97;;;1.80;;
12689;SDS011;6409;56.294;14.480;2022-08-23T09:59:45;3.10;;;1.93;;
12689;SDS011;6409;56.294;14.480;2022-08-23T10:02:16;1.70;;;1.60;;
12689;SDS011;6409;56.294;14.480;2022-08-23T10:04:54;2.10;;;1.60;;
12689;SDS011;6409;56.294;14.480;2022-08-23T10:07:25;1.73;;;1.60;;
12689;SDS011;6409;56.294;14.480;2022-08-23T10:09:54;2.07;;;1.50;;
12689;SDS011;6409;56.294;14.480;2022-08-23T10:12:39;3.77;;;1.60;;
12689;SDS011;6409;56.294;14.480;2022-08-23T10:15:08;3.43;;;1.83;;
12689;SDS011;6409;56.294;14.480;2022-08-23T10:17:36;1.77;;;1.67;;
12689;SDS011;6409;56.294;14.480;2022-08-23T10:20:12;2.27;;;1.70;;
12689;SDS011;6409;56.294;14.480;2022-08-23T10:22:43;2.40;;;1.90;;
12689;SDS011;6409;56.294;14.480;2022-08-23T10:25:12;2.07;;;1.87;;
12689;SDS011;6409;56.294;14.480;2022-08-23T10:27:48;1.80;;;1.70;;
12689;SDS011;6409;56.294;14.480;2022-08-23T10:30:40;2.30;;;2.10;;
12689;SDS011;6409;56.294;14.480;2022-08-23T10:33:12;1.70;;;1.60;;
12689;SDS011;6409;56.294;14.480;2022-08-23T10:35:44;1.93;;;1.80;;
12689;SDS011;6409;56.294;14.480;2022-08-23T10:41:07;3.10;;;1.80;;
12689;SDS011;6409;56.294;14.480;2022-08-23T10:43:50;1.77;;;1.67;;
12689;SDS011;6409;56.294;14.480;2022-08-23T10:46:25;2.03;;;1.90;;
12689;SDS011;6409;56.294;14.480;2022-08-23T10:48:55;3.37;;;1.77;;
12689;SDS011;6409;56.294;14.480;2022-08-23T10:51:24;2.90;;;1.80;;
12689;SDS011;6409;56.294;14.480;2022-08-23T10:53:54;2.70;;;1.90;;
12689;SDS011;6409;56.294;14.480;2022-08-23T10:56:25;2.40;;;1.90;;
12689;SDS011;6409;56.294;14.480;2022-08-23T10:58:53;3.20;;;2.10;;
12689;SDS011;6409;56.294;14.480;2022-08-23T11:01:23;12.87;;;2.23;;
12689;SDS011;6409;56.294;14.480;2022-08-23T11:03:59;2.90;;;2.00;;
12689;SDS011;6409;56.294;14.480;2022-08-23T11:06:39;3.80;;;2.00;;
12689;SDS011;6409;56.294;14.480;2022-08-23T11:12:05;2.20;;;2.00;;
12689;SDS011;6409;56.294;14.480;2022-08-23T11:14:40;2.03;;;1.93;;
12689;SDS011;6409;56.294;14.480;2022-08-23T11:17:21;2.40;;;2.20;;
12689;SDS011;6409;56.294;14.480;2022-08-23T11:19:51;2.07;;;1.97;;
12689;SDS011;6409;56.294;14.480;2022-08-23T11:22:20;2.37;;;1.77;;
12689;SDS011;6409;56.294;14.480;2022-08-23T11:24:50;3.40;;;2.13;;
12689;SDS011;6409;56.294;14.480;2022-08-23T11:27:26;1.87;;;1.77;;
12689;SDS011;6409;56.294;14.480;2022-08-23T11:29:57;2.00;;;1.90;;
12689;SDS011;6409;56.294;14.480;2022-08-23T11:32:41;4.17;;;2.10;;
12689;SDS011;6409;56.294;14.480;2022-08-23T11:35:31;2.03;;;1.93;;
12689;SDS011;6409;56.294;14.480;2022-08-23T11:38:03;2.00;;;1.90;;
12689;SDS011;6409;56.294;14.480;2022-08-23T11:40:38;2.00;;;1.90;;
12689;SDS011;6409;56.294;14.480;2022-08-23T11:43:28;1.90;;;1.80;;
12689;SDS011;6409;56.294;14.480;2022-08-23T11:46:21;3.00;;;2.10;;
12689;SDS011;6409;56.294;14.480;2022-08-23T11:49:13;1.83;;;1.73;;
12689;SDS011;6409;56.294;14.480;2022-08-23T11:52:01;1.90;;;1.80;;
12689;SDS011;6409;56.294;14.480;2022-08-23T11:54:38;2.13;;;1.77;;
12689;SDS011;6409;56.294;14.480;2022-08-23T11:57:18;2.23;;;2.07;;
12689;SDS011;6409;56.294;14.480;2022-08-23T12:02:47;3.13;;;2.17;;
12689;SDS011;6409;56.294;14.480;2022-08-23T12:05:24;2.33;;;2.23;;
12689;SDS011;6409;56.294;14.480;2022-08-23T12:11:05;2.57;;;2.37;;
12689;SDS011;6409;56.294;14.480;2022-08-23T12:13:44;2.10;;;2.00;;
12689;SDS011;6409;56.294;14.480;2022-08-23T12:16:35;1.90;;;1.80;;
12689;SDS011;6409;56.294;14.480;2022-08-23T12:19:05;2.20;;;1.98;;
12689;SDS011;6409;56.294;14.480;2022-08-23T12:21:41;2.30;;;2.20;;
12689;SDS011;6409;56.294;14.480;2022-08-23T12:24:12;2.65;;;2.45;;
12689;SDS011;6409;56.294;14.480;2022-08-23T12:26:43;2.40;;;2.20;;
12689;SDS011;6409;56.294;14.480;2022-08-23T12:29:18;2.33;;;2.22;;
12689;SDS011;6409;56.294;14.480;2022-08-23T12:32:02;3.60;;;2.17;;
12689;SDS011;6409;56.294;14.480;2022-08-23T12:34:37;2.30;;;2.20;;
12689;SDS011;6409;56.294;14.480;2022-08-23T12:37:19;2.53;;;2.33;;
12689;SDS011;6409;56.294;14.480;2022-08-23T12:39:51;3.88;;;2.28;;
12689;SDS011;6409;56.294;14.480;2022-08-23T12:42:24;2.20;;;2.10;;
12689;SDS011;6409;56.294;14.480;2022-08-23T12:44:59;2.20;;;2.10;;
12689;SDS011;6409;56.294;14.480;2022-08-23T12:47:28;2.20;;;2.00;;
12689;SDS011;6409;56.294;14.480;2022-08-23T12:49:57;2.90;;;2.67;;
12689;SDS011;6409;56.294;14.480;2022-08-23T12:52:28;2.43;;;2.20;;
12689;SDS011;6409;56.294;14.480;2022-08-23T12:54:57;6.40;;;2.85;;
12689;SDS011;6409;56.294;14.480;2022-08-23T12:57:26;5.53;;;2.60;;
12689;SDS011;6409;56.294;14.480;2022-08-23T12:59:58;2.10;;;2.00;;
12689;SDS011;6409;56.294;14.480;2022-08-23T13:02:32;2.00;;;1.90;;
12689;SDS011;6409;56.294;14.480;2022-08-23T13:05:01;2.28;;;2.10;;
12689;SDS011;6409;56.294;14.480;2022-08-23T13:07:31;2.10;;;2.00;;
12689;SDS011;6409;56.294;14.480;2022-08-23T13:09:58;2.17;;;2.07;;
12689;SDS011;6409;56.294;14.480;2022-08-23T13:12:25;2.20;;;2.00;;
12689;SDS011;6409;56.294;14.480;2022-08-23T13:14:53;2.13;;;2.03;;
12689;SDS011;6409;56.294;14.480;2022-08-23T13:17:29;2.65;;;2.45;;
12689;SDS011;6409;56.294;14.480;2022-08-23T13:20:18;2.38;;;2.00;;
12689;SDS011;6409;56.294;14.480;2022-08-23T13:22:56;2.23;;;2.10;;
12689;SDS011;6409;56.294;14.480;2022-08-23T13:25:28;4.15;;;1.90;;
12689;SDS011;6409;56.294;14.480;2022-08-23T13:27:57;2.05;;;1.95;;
12689;SDS011;6409;56.294;14.480;2022-08-23T13:30:26;1.90;;;1.83;;
12689;SDS011;6409;56.294;14.480;2022-08-23T13:35:43;2.20;;;2.00;;
12689;SDS011;6409;56.294;14.480;2022-08-23T13:38:15;2.22;;;2.08;;
12689;SDS011;6409;56.294;14.480;2022-08-23T13:40:48;2.13;;;1.90;;
12689;SDS011;6409;56.294;14.480;2022-08-23T13:43:20;2.42;;;2.10;;
12689;SDS011;6409;56.294;14.480;2022-08-23T13:45:50;5.15;;;2.53;;
12689;SDS011;6409;56.294;14.480;2022-08-23T13:48:19;2.00;;;1.90;;
12689;SDS011;6409;56.294;14.480;2022-08-23T13:50:46;2.10;;;2.00;;
12689;SDS011;6409;56.294;14.480;2022-08-23T13:53:15;2.20;;;2.10;;
12689;SDS011;6409;56.294;14.480;2022-08-23T13:55:43;2.00;;;1.90;;
12689;SDS011;6409;56.294;14.480;2022-08-23T13:58:13;2.05;;;1.90;;
12689;SDS011;6409;56.294;14.480;2022-08-23T14:00:45;2.85;;;2.15;;
12689;SDS011;6409;56.294;14.480;2022-08-23T14:03:12;2.20;;;2.00;;
12689;SDS011;6409;56.294;14.480;2022-08-23T14:05:39;2.00;;;1.90;;
12689;SDS011;6409;56.294;14.480;2022-08-23T14:08:06;2.28;;;2.08;;
12689;SDS011;6409;56.294;14.480;2022-08-23T14:10:35;2.10;;;2.00;;
12689;SDS011;6409;56.294;14.480;2022-08-23T14:13:02;2.33;;;2.20;;
12689;SDS011;6409;56.294;14.480;2022-08-23T14:15:29;2.10;;;2.00;;
12689;SDS011;6409;56.294;14.480;2022-08-23T14:17:56;2.20;;;2.10;;
12689;SDS011;6409;56.294;14.480;2022-08-23T14:20:24;2.80;;;2.35;;
12689;SDS011;6409;56.294;14.480;2022-08-23T14:22:51;2.35;;;2.25;;
12689;SDS011;6409;56.294;14.480;2022-08-23T14:25:18;2.00;;;1.90;;
12689;SDS011;6409;56.294;14.480;2022-08-23T14:27:46;2.20;;;2.10;;
12689;SDS011;6409;56.294;14.480;2022-08-23T14:30:20;2.10;;;2.00;;
12689;SDS011;6409;56.294;14.480;2022-08-23T14:32:49;2.10;;;2.00;;
12689;SDS011;6409;56.294;14.480;2022-08-23T14:35:15;2.30;;;2.10;;
12689;SDS011;6409;56.294;14.480;2022-08-23T14:37:43;2.00;;;1.90;;
12689;SDS011;6409;56.294;14.480;2022-08-23T14:40:10;2.23;;;2.03;;
12689;SDS011;6409;56.294;14.480;2022-08-23T14:42:37;2.45;;;1.90;;
12689;SDS011;6409;56.294;14.480;2022-08-23T14:45:06;2.10;;;2.00;;
12689;SDS011;6409;56.294;14.480;2022-08-23T14:47:33;2.75;;;2.50;;
12689;SDS011;6409;56.294;14.480;2022-08-23T14:50:00;2.20;;;2.10;;
12689;SDS011;6409;56.294;14.480;2022-08-23T14:52:27;4.38;;;2.10;;
12689;SDS011;6409;56.294;14.480;2022-08-23T14:54:54;2.10;;;2.00;;
12689;SDS011;6409;56.294;14.480;2022-08-23T14:57:21;2.22;;;2.08;;
12689;SDS011;6409;56.294;14.480;2022-08-23T14:59:48;2.63;;;2.42;;
12689;SDS011;6409;56.294;14.480;2022-08-23T15:02:18;2.78;;;2.10;;
12689;SDS011;6409;56.294;14.480;2022-08-23T15:04:47;1.98;;;1.88;;
12689;SDS011;6409;56.294;14.480;2022-08-23T15:07:14;3.22;;;2.10;;
12689;SDS011;6409;56.294;14.480;2022-08-23T15:09:41;2.10;;;2.00;;
12689;SDS011;6409;56.294;14.480;2022-08-23T15:12:08;2.65;;;2.38;;
12689;SDS011;6409;56.294;14.480;2022-08-23T15:14:35;2.28;;;2.00;;
12689;SDS011;6409;56.294;14.480;2022-08-23T15:17:02;2.30;;;2.10;;
12689;SDS011;6409;56.294;14.480;2022-08-23T15:19:31;3.00;;;2.17;;